Time;durP1;ratioP1;P1;durP2;ratioP2;P2;SDS_P1;SDS_P2;PMS_P1;PMS_P2;Temp;Humidity;BMP_temperature;BMP_pressure;BME280_temperature;BME280_humidity;BME280_pressure;Samples;Min_cycle;Max_cycle;Signal;HPM_P1;HPM_P2
2021/08/15 00:01:15;;;;;;;9.23;7.60;;;26.60;99.90;;;;;;5012295;28;20026;-70
2021/08/15 00:03:41;;;;;;;9.90;8.55;;;26.60;99.90;;;;;;5013396;28;20030;-70
2021/08/15 00:06:07;;;;;;;9.40;8.27;;;26.50;99.90;;;;;;5012339;28;20026;-70
2021/08/15 00:08:33;;;;;;;8.65;7.55;;;26.50;99.90;;;;;;5013072;28;20053;-70
2021/08/15 00:10:58;;;;;;;7.63;7.00;;;26.60;99.90;;;;;;5012216;28;20112;-69
2021/08/15 00:13:27;;;;;;;8.35;7.55;;;26.50;99.90;;;;;;5012844;28;20441;-70
2021/08/15 00:15:55;;;;;;;14.98;6.90;;;26.60;99.90;;;;;;5013653;28;20026;-70
2021/08/15 00:18:21;;;;;;;11.00;7.53;;;26.50;99.90;;;;;;5013641;28;20026;-70
2021/08/15 00:20:47;;;;;;;11.07;7.10;;;26.40;99.90;;;;;;5012173;28;20037;-70
2021/08/15 00:23:12;;;;;;;7.55;6.88;;;26.30;99.90;;;;;;5011568;28;20560;-69
2021/08/15 00:25:38;;;;;;;7.50;6.63;;;26.10;99.90;;;;;;5012879;28;20061;-69
2021/08/15 00:28:04;;;;;;;8.10;7.28;;;26.10;99.90;;;;;;5012785;28;20026;-69
2021/08/15 00:30:30;;;;;;;9.02;7.55;;;26.10;99.90;;;;;;5011778;28;20026;-70
2021/08/15 00:32:55;;;;;;;8.00;7.25;;;26.20;99.90;;;;;;5013085;28;20453;-69
2021/08/15 00:35:21;;;;;;;8.43;7.10;;;26.30;99.90;;;;;;5011823;28;20022;-69
2021/08/15 00:37:47;;;;;;;6.75;6.10;;;26.30;99.90;;;;;;5012581;28;20157;-70
2021/08/15 00:40:13;;;;;;;8.07;7.30;;;26.40;99.90;;;;;;5011151;28;20168;-69
2021/08/15 00:42:39;;;;;;;7.05;6.45;;;26.50;99.90;;;;;;5012941;28;20022;-70
2021/08/15 00:45:05;;;;;;;11.13;6.80;;;26.30;99.90;;;;;;5012892;28;20523;-70
2021/08/15 00:47:32;;;;;;;9.05;7.18;;;26.20;99.90;;;;;;5011404;28;20112;-70
2021/08/15 00:49:59;;;;;;;7.35;6.75;;;26.20;99.90;;;;;;5012640;28;20030;-68
2021/08/15 00:52:25;;;;;;;6.90;6.30;;;26.10;99.90;;;;;;5011302;28;20025;-69
2021/08/15 00:54:52;;;;;;;7.50;6.78;;;26.20;99.90;;;;;;5011631;28;20496;-70
2021/08/15 00:57:18;;;;;;;9.63;7.25;;;26.20;99.90;;;;;;5012958;28;20420;-69
2021/08/15 00:59:44;;;;;;;7.95;7.25;;;26.20;99.90;;;;;;5011297;28;20029;-70
2021/08/15 01:02:11;;;;;;;7.93;6.47;;;26.30;99.90;;;;;;5011038;28;20030;-71
2021/08/15 01:04:39;;;;;;;7.28;6.50;;;26.30;99.90;;;;;;5011221;28;20030;-69
2021/08/15 01:07:06;;;;;;;10.88;6.85;;;26.30;99.90;;;;;;5012246;28;20030;-70
2021/08/15 01:09:33;;;;;;;10.85;7.10;;;26.40;99.90;;;;;;5010972;28;20028;-69
2021/08/15 01:11:59;;;;;;;7.65;6.90;;;26.30;99.90;;;;;;5012284;28;20022;-70
2021/08/15 01:14:25;;;;;;;9.50;6.70;;;26.20;99.90;;;;;;5010827;28;20068;-69
2021/08/15 01:16:51;;;;;;;7.45;6.78;;;26.10;99.90;;;;;;5012360;28;20049;-71
2021/08/15 01:19:17;;;;;;;12.48;6.60;;;26.10;99.90;;;;;;5012185;28;20547;-70
2021/08/15 01:21:46;;;;;;;7.60;6.50;;;26.00;99.90;;;;;;5010481;28;20370;-69
2021/08/15 01:24:14;;;;;;;11.23;7.38;;;25.90;99.90;;;;;;5010865;28;20057;-70
2021/08/15 01:26:44;;;;;;;9.50;7.45;;;25.90;99.90;;;;;;5010769;28;20078;-70
2021/08/15 01:29:10;;;;;;;8.05;7.22;;;26.00;99.90;;;;;;5011726;28;20540;-70
2021/08/15 01:31:37;;;;;;;7.28;6.68;;;26.00;99.90;;;;;;5010553;28;20046;-71
2021/08/15 01:34:02;;;;;;;8.27;7.47;;;26.00;99.90;;;;;;5011599;28;20473;-70
2021/08/15 01:36:28;;;;;;;9.50;7.70;;;25.90;99.90;;;;;;5011780;28;20109;-69
2021/08/15 01:38:54;;;;;;;16.38;10.90;;;25.90;99.90;;;;;;5010315;28;20400;-69
2021/08/15 01:41:20;;;;;;;9.82;9.02;;;25.80;99.90;;;;;;5010387;28;20032;-69
2021/08/15 01:43:57;;;;;;;11.27;9.80;;;25.80;99.90;;;;;;5010025;28;20117;-69
2021/08/15 01:46:25;;;;;;;9.32;8.55;;;25.80;99.90;;;;;;5010221;28;20431;-69
2021/08/15 01:48:52;;;;;;;7.13;6.57;;;25.70;99.90;;;;;;5010163;28;20030;-69
2021/08/15 01:51:18;;;;;;;11.05;10.05;;;25.70;99.90;;;;;;5010534;28;20074;-70
2021/08/15 01:53:46;;;;;;;10.48;9.38;;;25.60;99.90;;;;;;5011688;28;20118;-70
2021/08/15 01:56:12;;;;;;;8.70;7.97;;;25.70;99.90;;;;;;5011660;28;20045;-70
2021/08/15 01:58:37;;;;;;;8.10;6.93;;;25.70;99.90;;;;;;5011321;28;20473;-70
2021/08/15 02:01:05;;;;;;;7.97;7.13;;;25.70;99.90;;;;;;5011533;28;20025;-70
2021/08/15 02:03:31;;;;;;;8.95;8.13;;;25.80;99.90;;;;;;5010151;28;20026;-70
2021/08/15 02:05:57;;;;;;;11.35;7.72;;;25.80;99.90;;;;;;5011280;28;20029;-70
2021/08/15 02:08:23;;;;;;;8.07;7.28;;;25.80;99.90;;;;;;5010932;28;20026;-70
2021/08/15 02:10:50;;;;;;;8.70;7.05;;;25.80;99.90;;;;;;5009926;28;20087;-70
2021/08/15 02:13:15;;;;;;;9.57;8.52;;;25.70;99.90;;;;;;5010005;28;20050;-70
2021/08/15 02:15:42;;;;;;;8.25;7.07;;;25.70;99.90;;;;;;5011223;28;20049;-70
2021/08/15 02:18:08;;;;;;;9.18;7.60;;;25.60;99.90;;;;;;5009909;28;20045;-70
2021/08/15 02:20:35;;;;;;;8.23;7.43;;;25.50;99.90;;;;;;5010343;28;20029;-71
2021/08/15 02:23:01;;;;;;;9.20;8.40;;;25.60;99.90;;;;;;5010243;28;20041;-70
2021/08/15 02:25:28;;;;;;;7.72;6.93;;;25.70;99.90;;;;;;5011919;28;20037;-69
2021/08/15 02:27:55;;;;;;;7.93;7.05;;;25.70;99.90;;;;;;5009911;28;20033;-70
2021/08/15 02:30:23;;;;;;;10.35;7.75;;;25.80;99.90;;;;;;5012133;28;20021;-70
2021/08/15 02:32:49;;;;;;;8.05;7.13;;;25.80;99.90;;;;;;5011335;28;20072;-70
2021/08/15 02:35:16;;;;;;;8.15;7.38;;;25.90;99.90;;;;;;5011210;28;20109;-70
2021/08/15 02:37:45;;;;;;;8.25;7.45;;;25.80;99.90;;;;;;5009359;28;20029;-69
2021/08/15 02:40:12;;;;;;;9.68;7.43;;;25.80;99.90;;;;;;5009354;28;20116;-70
2021/08/15 02:42:41;;;;;;;9.25;7.38;;;25.80;99.90;;;;;;5009537;28;20026;-69
2021/08/15 02:45:09;;;;;;;8.13;6.88;;;25.90;99.90;;;;;;5009313;28;20021;-70
2021/08/15 02:47:35;;;;;;;8.07;7.40;;;25.80;99.90;;;;;;5009439;28;20036;-70
2021/08/15 02:50:01;;;;;;;7.40;6.70;;;25.90;99.90;;;;;;5010747;28;20026;-69
2021/08/15 02:52:27;;;;;;;8.25;7.45;;;25.80;99.90;;;;;;5010394;28;20112;-70
2021/08/15 02:54:53;;;;;;;8.60;7.30;;;25.70;99.90;;;;;;5011311;28;20480;-70
2021/08/15 02:57:23;;;;;;;8.00;7.22;;;25.60;99.90;;;;;;5011603;28;20053;-70
2021/08/15 02:59:49;;;;;;;10.88;6.68;;;25.60;99.90;;;;;;5009500;28;20041;-69
2021/08/15 03:02:17;;;;;;;8.90;8.00;;;25.60;99.90;;;;;;5010816;28;20045;-70
2021/08/15 03:04:44;;;;;;;8.27;7.63;;;25.60;99.90;;;;;;5010668;28;20105;-69
2021/08/15 03:07:10;;;;;;;7.85;7.07;;;25.70;99.90;;;;;;5008943;28;20034;-70
2021/08/15 03:09:36;;;;;;;9.23;7.35;;;25.80;99.90;;;;;;5009066;28;20033;-70
2021/08/15 03:12:02;;;;;;;7.53;6.90;;;25.80;99.90;;;;;;5008937;28;20022;-69
2021/08/15 03:14:31;;;;;;;8.30;7.50;;;25.80;99.90;;;;;;5010461;28;20040;-69
2021/08/15 03:16:57;;;;;;;8.05;7.35;;;25.90;99.90;;;;;;5009253;28;20072;-70
2021/08/15 03:19:23;;;;;;;8.15;6.43;;;26.00;99.90;;;;;;5009585;28;20034;-70
2021/08/15 03:21:49;;;;;;;8.02;7.22;;;25.90;99.90;;;;;;5010907;28;20025;-69
2021/08/15 03:24:15;;;;;;;8.70;6.75;;;26.00;99.90;;;;;;5009546;28;20026;-70
2021/08/15 03:26:43;;;;;;;7.10;6.20;;;26.00;99.90;;;;;;5010577;28;20424;-70
2021/08/15 03:29:13;;;;;;;7.22;6.53;;;26.00;99.90;;;;;;5010080;28;20472;-70
2021/08/15 03:31:40;;;;;;;9.27;7.10;;;26.00;99.90;;;;;;5008849;28;20034;-71
2021/08/15 03:34:06;;;;;;;11.40;6.47;;;26.00;99.90;;;;;;5010153;28;20030;-71
2021/08/15 03:36:32;;;;;;;8.90;6.72;;;26.00;99.90;;;;;;5008778;28;20018;-69
2021/08/15 03:38:57;;;;;;;8.00;6.20;;;26.00;99.90;;;;;;5010310;28;20033;-69
2021/08/15 03:41:24;;;;;;;8.70;6.90;;;26.00;99.90;;;;;;5010598;28;20376;-69
2021/08/15 03:43:49;;;;;;;9.50;6.07;;;26.00;99.90;;;;;;5010231;28;20026;-70
2021/08/15 03:46:15;;;;;;;8.43;6.85;;;26.00;99.90;;;;;;5008706;28;20113;-70
2021/08/15 03:48:41;;;;;;;8.35;6.32;;;26.10;99.90;;;;;;5010489;28;20041;-69
2021/08/15 03:51:06;;;;;;;7.07;6.22;;;26.00;99.90;;;;;;5013753;28;20021;-69
2021/08/15 03:53:32;;;;;;;8.02;6.63;;;26.00;99.90;;;;;;5012573;28;20042;-69
2021/08/15 03:55:58;;;;;;;7.65;6.95;;;26.00;99.90;;;;;;5013657;28;20105;-69
2021/08/15 03:58:24;;;;;;;8.52;7.72;;;25.80;99.90;;;;;;5012139;28;20029;-69
2021/08/15 04:00:50;;;;;;;8.20;7.40;;;25.80;99.90;;;;;;5014020;28;20030;-69
2021/08/15 04:03:15;;;;;;;9.35;8.40;;;25.80;99.90;;;;;;5012361;28;20041;-71
2021/08/15 04:05:41;;;;;;;10.38;6.93;;;25.80;99.90;;;;;;5012419;28;20404;-69
2021/08/15 04:08:08;;;;;;;7.78;6.22;;;25.80;99.90;;;;;;5012133;28;20034;-69
2021/08/15 04:10:34;;;;;;;6.85;6.28;;;25.80;99.90;;;;;;5012495;28;20030;-72
2021/08/15 04:13:00;;;;;;;10.93;7.00;;;25.80;99.90;;;;;;5013997;28;20018;-72
2021/08/15 04:15:27;;;;;;;6.78;6.10;;;25.80;99.90;;;;;;5011847;28;20105;-69
2021/08/15 04:17:53;;;;;;;8.93;6.38;;;25.80;99.90;;;;;;5013292;28;20084;-70
2021/08/15 04:20:20;;;;;;;7.18;6.53;;;25.80;99.90;;;;;;5013076;28;20106;-70
2021/08/15 04:22:45;;;;;;;7.78;7.03;;;25.80;99.90;;;;;;5011672;28;20132;-70
2021/08/15 04:25:11;;;;;;;6.93;6.13;;;25.80;99.90;;;;;;5013103;28;20097;-71
2021/08/15 04:27:37;;;;;;;7.43;6.20;;;25.80;99.90;;;;;;5012624;28;20018;-70
2021/08/15 04:30:05;;;;;;;8.15;7.35;;;25.80;99.90;;;;;;5011825;28;20092;-70
2021/08/15 04:32:31;;;;;;;8.45;7.03;;;25.70;99.90;;;;;;5012908;28;20572;-70
2021/08/15 04:34:57;;;;;;;9.13;7.03;;;25.60;99.90;;;;;;5011551;28;20109;-68
2021/08/15 04:37:22;;;;;;;7.82;6.68;;;25.60;99.90;;;;;;5012687;28;20061;-69
2021/08/15 04:39:48;;;;;;;9.45;7.50;;;25.50;99.90;;;;;;5012818;28;20061;-70
2021/08/15 04:42:14;;;;;;;7.97;7.28;;;25.50;99.90;;;;;;5011179;28;20049;-69
2021/08/15 04:44:40;;;;;;;7.57;6.78;;;25.50;99.90;;;;;;5012580;28;20026;-69
2021/08/15 04:47:05;;;;;;;7.68;6.97;;;25.60;99.90;;;;;;5010936;28;20087;-69
2021/08/15 04:49:31;;;;;;;8.13;7.32;;;25.70;99.90;;;;;;5012428;28;20034;-70
2021/08/15 04:51:57;;;;;;;11.52;7.35;;;25.70;99.90;;;;;;5011440;28;20033;-70
2021/08/15 04:54:26;;;;;;;8.10;6.82;;;25.90;99.90;;;;;;5012591;28;20328;-69
2021/08/15 04:56:53;;;;;;;11.60;6.03;;;26.00;99.90;;;;;;5011459;28;20176;-70
2021/08/15 04:59:19;;;;;;;8.68;6.57;;;26.10;99.90;;;;;;5012220;28;20030;-70
2021/08/15 05:01:44;;;;;;;10.10;7.28;;;26.10;99.90;;;;;;5013206;28;20045;-70
2021/08/15 05:04:10;;;;;;;8.02;7.22;;;26.10;99.90;;;;;;5011291;28;20081;-70
2021/08/15 05:06:36;;;;;;;9.90;6.93;;;26.10;99.90;;;;;;5012101;28;20029;-69
2021/08/15 05:09:02;;;;;;;7.72;6.85;;;26.20;99.90;;;;;;5011909;28;20029;-70
2021/08/15 05:11:28;;;;;;;10.88;7.18;;;26.30;99.90;;;;;;5012061;28;20022;-70
2021/08/15 05:13:54;;;;;;;8.40;6.57;;;26.40;99.90;;;;;;5010600;28;20125;-70
2021/08/15 05:16:20;;;;;;;7.43;6.82;;;26.40;99.90;;;;;;5012052;28;20037;-69
2021/08/15 05:18:45;;;;;;;7.03;6.43;;;26.40;99.90;;;;;;5011845;28;20108;-70
2021/08/15 05:21:11;;;;;;;8.38;7.55;;;26.40;99.90;;;;;;5010560;28;20073;-70
2021/08/15 05:23:37;;;;;;;9.65;7.65;;;26.50;99.90;;;;;;5010727;28;20084;-68
2021/08/15 05:26:03;;;;;;;8.65;7.10;;;26.40;99.90;;;;;;5012124;28;20096;-71
2021/08/15 05:28:29;;;;;;;10.30;6.82;;;26.40;99.90;;;;;;5011914;28;20033;-70
2021/08/15 05:30:54;;;;;;;8.35;7.55;;;26.40;99.90;;;;;;5011043;28;20018;-69
2021/08/15 05:33:20;;;;;;;11.25;7.57;;;26.50;99.90;;;;;;5012145;28;20100;-70
2021/08/15 05:35:46;;;;;;;7.57;6.63;;;26.50;99.90;;;;;;5010549;28;20050;-70
2021/08/15 05:38:12;;;;;;;10.70;7.78;;;26.60;99.90;;;;;;5011819;28;20096;-70
2021/08/15 05:40:37;;;;;;;7.70;6.40;;;26.70;99.90;;;;;;5011802;28;20169;-70
2021/08/15 05:43:03;;;;;;;8.18;7.25;;;26.60;99.90;;;;;;5011790;28;20120;-70
2021/08/15 05:45:29;;;;;;;7.43;6.47;;;26.70;99.90;;;;;;5010636;28;20037;-70
2021/08/15 05:47:55;;;;;;;8.05;6.70;;;26.70;99.90;;;;;;5009729;28;20033;-70
2021/08/15 05:50:21;;;;;;;8.10;7.30;;;26.80;99.90;;;;;;5011321;28;20464;-70
2021/08/15 05:52:46;;;;;;;8.63;7.78;;;26.90;99.90;;;;;;5009849;28;20022;-72
2021/08/15 05:55:13;;;;;;;8.27;7.53;;;27.00;99.90;;;;;;5011821;28;20065;-70
2021/08/15 05:57:38;;;;;;;8.57;7.78;;;27.10;99.90;;;;;;5011515;28;20025;-70
2021/08/15 06:00:06;;;;;;;11.32;7.55;;;27.20;99.90;;;;;;5010100;28;20079;-70
2021/08/15 06:02:33;;;;;;;7.63;6.95;;;27.20;99.90;;;;;;5010594;28;20030;-70
2021/08/15 06:04:58;;;;;;;8.02;7.38;;;27.20;99.90;;;;;;5009734;28;20037;-70
2021/08/15 06:07:24;;;;;;;8.77;8.02;;;27.30;99.90;;;;;;5009353;28;20488;-68
2021/08/15 06:09:50;;;;;;;13.88;7.90;;;27.30;99.90;;;;;;5010932;28;20033;-69
2021/08/15 06:12:16;;;;;;;6.63;6.03;;;27.40;99.90;;;;;;5010830;28;20476;-70
2021/08/15 06:14:42;;;;;;;8.55;6.68;;;27.50;99.90;;;;;;5009855;28;20029;-70
2021/08/15 06:17:08;;;;;;;7.68;6.30;;;27.60;99.90;;;;;;5009745;28;20156;-70
2021/08/15 06:19:33;;;;;;;10.57;7.32;;;27.60;99.90;;;;;;5009664;28;20029;-70
2021/08/15 06:22:00;;;;;;;8.85;6.97;;;27.70;99.90;;;;;;5009659;28;20061;-70
2021/08/15 06:24:27;;;;;;;8.55;6.13;;;27.80;99.90;;;;;;5011118;28;20029;-70
2021/08/15 06:26:54;;;;;;;8.38;7.57;;;27.90;99.90;;;;;;5011082;28;20380;-69
2021/08/15 06:29:20;;;;;;;9.43;6.80;;;28.10;99.90;;;;;;5011201;28;20034;-73
2021/08/15 06:31:46;;;;;;;7.88;7.22;;;28.10;99.90;;;;;;5011080;28;20022;-70
2021/08/15 06:34:11;;;;;;;8.38;6.82;;;28.20;99.90;;;;;;5009537;28;20032;-70
2021/08/15 06:36:37;;;;;;;11.52;6.93;;;28.30;99.90;;;;;;5011151;28;20027;-70
2021/08/15 06:39:05;;;;;;;8.88;7.47;;;28.40;99.90;;;;;;5009491;28;20033;-70
2021/08/15 06:41:32;;;;;;;7.78;7.03;;;28.50;99.90;;;;;;5009603;28;20034;-70
2021/08/15 06:43:58;;;;;;;7.28;6.65;;;28.60;99.90;;;;;;5009547;28;20026;-69
2021/08/15 06:46:23;;;;;;;6.50;5.90;;;28.80;99.90;;;;;;5011190;28;20109;-70
2021/08/15 06:48:49;;;;;;;7.95;7.25;;;29.10;99.90;;;;;;5010491;28;20033;-71
2021/08/15 06:51:15;;;;;;;9.07;8.25;;;29.20;99.90;;;;;;5012027;28;20250;-71
2021/08/15 06:53:41;;;;;;;10.23;7.53;;;29.30;99.90;;;;;;5009225;28;20033;-70
2021/08/15 06:56:09;;;;;;;7.18;6.57;;;29.40;99.90;;;;;;5011324;28;20029;-72
2021/08/15 06:58:36;;;;;;;7.65;6.95;;;29.50;99.90;;;;;;5014018;28;20025;-71
2021/08/15 07:01:02;;;;;;;9.95;7.28;;;29.50;99.90;;;;;;5018126;28;20113;-71
2021/08/15 07:03:28;;;;;;;9.40;7.40;;;29.40;99.90;;;;;;5014111;28;20132;-70
2021/08/15 07:05:54;;;;;;;8.45;6.75;;;29.40;99.90;;;;;;5011206;28;20036;-71
2021/08/15 07:08:20;;;;;;;11.00;7.45;;;29.30;99.90;;;;;;5029782;28;20060;-71
2021/08/15 07:10:45;;;;;;;7.65;6.93;;;29.40;99.90;;;;;;5029030;28;20079;-71
2021/08/15 07:13:11;;;;;;;7.90;6.88;;;29.50;99.90;;;;;;5027488;28;20099;-70
2021/08/15 07:15:37;;;;;;;8.63;7.25;;;29.60;99.90;;;;;;5015769;28;20030;-71
2021/08/15 07:18:03;;;;;;;7.30;6.60;;;29.70;99.90;;;;;;5025239;28;20033;-69
2021/08/15 07:20:29;;;;;;;7.97;7.30;;;29.90;99.90;;;;;;5027268;28;20040;-71
2021/08/15 07:22:57;;;;;;;10.70;6.93;;;30.00;99.90;;;;;;5012356;28;20036;-71
2021/08/15 07:25:25;;;;;;;10.93;6.75;;;30.10;99.90;;;;;;5015020;28;20068;-70
2021/08/15 07:27:50;;;;;;;8.77;7.25;;;30.20;99.90;;;;;;5014906;28;20075;-70
2021/08/15 07:30:16;;;;;;;8.52;7.78;;;30.30;99.90;;;;;;5011344;28;20432;-70
2021/08/15 07:33:08;;;;;;;7.90;6.80;;;30.40;99.90;;;;;;5012732;28;20045;-69
2021/08/15 07:35:36;;;;;;;9.73;7.28;;;30.50;99.90;;;;;;5011097;28;20038;-70
2021/08/15 07:38:03;;;;;;;10.18;6.78;;;30.70;99.90;;;;;;5013341;28;20584;-70
2021/08/15 07:40:29;;;;;;;11.32;6.00;;;30.70;99.90;;;;;;5014134;28;20022;-71
2021/08/15 07:42:56;;;;;;;8.85;7.95;;;30.70;99.90;;;;;;5013778;28;20443;-71
2021/08/15 07:45:27;;;;;;;15.57;8.27;;;30.70;99.90;;;;;;5013851;28;20060;-71
2021/08/15 07:47:53;;;;;;;28.35;9.30;;;30.70;99.90;;;;;;5013295;28;20370;-70
2021/08/15 07:50:19;;;;;;;30.25;10.25;;;30.80;99.90;;;;;;5013692;28;20026;-69
2021/08/15 07:52:45;;;;;;;24.38;9.82;;;30.90;99.90;;;;;;5013546;28;20026;-70
2021/08/15 07:55:11;;;;;;;28.02;10.60;;;31.00;99.90;;;;;;5014061;28;20025;-69
2021/08/15 07:57:37;;;;;;;26.83;10.27;;;31.00;99.90;;;;;;5013422;28;20053;-70
2021/08/15 08:00:04;;;;;;;31.88;9.30;;;31.10;99.90;;;;;;5013647;28;20072;-69
2021/08/15 08:02:30;;;;;;;22.80;8.63;;;31.00;99.90;;;;;;5012433;28;20056;-70
2021/08/15 08:04:56;;;;;;;14.77;8.85;;;31.10;99.90;;;;;;5012658;28;20034;-70
2021/08/15 08:07:22;;;;;;;17.65;8.07;;;31.20;99.90;;;;;;5013710;28;20036;-69
2021/08/15 08:09:49;;;;;;;13.82;9.57;;;31.20;99.90;;;;;;5013675;28;20102;-70
2021/08/15 08:12:17;;;;;;;18.70;9.40;;;31.30;99.90;;;;;;5013566;28;20484;-70
2021/08/15 08:14:43;;;;;;;16.60;8.55;;;31.30;99.90;;;;;;5013621;28;20101;-70
2021/08/15 08:17:12;;;;;;;13.15;8.70;;;31.40;99.90;;;;;;5013202;28;20018;-70
2021/08/15 08:19:38;;;;;;;11.70;8.75;;;31.40;99.90;;;;;;5012988;28;20018;-69
2021/08/15 08:22:04;;;;;;;11.48;8.73;;;31.40;99.90;;;;;;5012746;28;20322;-72
2021/08/15 08:24:30;;;;;;;9.32;8.43;;;31.40;99.90;;;;;;5011573;28;20041;-70
2021/08/15 08:26:56;;;;;;;11.38;8.63;;;31.40;99.90;;;;;;5013105;28;20093;-70
2021/08/15 08:29:22;;;;;;;9.90;7.85;;;31.40;99.90;;;;;;5011617;28;20038;-71
2021/08/15 08:31:48;;;;;;;8.15;7.55;;;31.30;99.90;;;;;;5011722;28;20061;-70
2021/08/15 08:34:13;;;;;;;9.98;8.48;;;31.20;99.90;;;;;;5011034;28;20429;-70
2021/08/15 08:36:39;;;;;;;10.48;8.20;;;31.30;99.90;;;;;;5012991;28;20033;-70
2021/08/15 08:39:05;;;;;;;9.52;8.73;;;31.30;99.90;;;;;;5012223;28;20512;-69
2021/08/15 08:41:32;;;;;;;9.98;9.00;;;31.10;99.90;;;;;;5012713;28;20026;-70
2021/08/15 08:43:58;;;;;;;10.57;8.15;;;31.00;99.90;;;;;;5011268;28;20548;-70
2021/08/15 08:46:25;;;;;;;30.00;9.55;;;30.70;99.90;;;;;;5012939;28;20040;-70
2021/08/15 08:48:54;;;;;;;18.38;9.70;;;30.60;99.90;;;;;;5013058;28;20034;-72
2021/08/15 08:51:21;;;;;;;10.88;8.95;;;30.50;99.90;;;;;;5013159;28;20029;-71
2021/08/15 08:53:50;;;;;;;10.23;9.05;;;30.60;99.90;;;;;;5011623;28;20030;-70
2021/08/15 08:56:16;;;;;;;20.77;9.30;;;30.50;99.90;;;;;;5011331;28;20022;-70
2021/08/15 08:58:43;;;;;;;9.50;8.60;;;30.40;99.90;;;;;;5011613;28;20030;-69
2021/08/15 09:01:12;;;;;;;9.93;8.88;;;30.40;99.90;;;;;;5011316;28;20049;-73
2021/08/15 09:03:40;;;;;;;9.10;8.30;;;30.30;99.90;;;;;;5011089;28;20491;-72
2021/08/15 09:06:19;;;;;;;10.25;9.25;;;30.40;99.90;;;;;;5012672;28;20570;-72
2021/08/15 09:08:44;;;;;;;10.40;8.05;;;30.50;99.90;;;;;;5012194;28;20113;-70
2021/08/15 09:11:20;;;;;;;9.57;8.75;;;30.50;99.90;;;;;;5011217;28;20480;-69
2021/08/15 09:14:11;;;;;;;10.00;8.20;;;30.50;99.90;;;;;;5012457;28;20021;-71
2021/08/15 09:16:59;;;;;;;9.43;8.52;;;30.60;99.90;;;;;;5012246;28;20068;-70
2021/08/15 09:19:45;;;;;;;11.35;8.63;;;30.60;99.90;;;;;;5012193;28;20040;-70
2021/08/15 09:22:21;;;;;;;12.90;9.05;;;30.70;99.90;;;;;;5011732;28;20033;-70
2021/08/15 09:24:49;;;;;;;14.38;9.40;;;30.70;99.90;;;;;;5010719;28;20030;-71
2021/08/15 09:27:41;;;;;;;9.70;8.80;;;30.80;99.90;;;;;;5011903;28;20052;-70
2021/08/15 09:30:21;;;;;;;11.75;9.15;;;30.80;99.90;;;;;;5008701;28;20070;-69
2021/08/15 09:33:02;;;;;;;13.10;9.07;;;30.80;99.90;;;;;;5012191;28;20076;-69
2021/08/15 09:35:29;;;;;;;10.88;7.85;;;30.70;99.90;;;;;;5012160;28;20017;-70
2021/08/15 09:38:14;;;;;;;10.15;8.48;;;30.80;99.90;;;;;;5011808;28;20026;-71
2021/08/15 09:40:46;;;;;;;8.70;7.90;;;30.70;99.90;;;;;;5010672;28;20406;-69
2021/08/15 09:43:21;;;;;;;9.35;8.50;;;30.80;99.90;;;;;;5010309;28;20112;-69
2021/08/15 09:45:58;;;;;;;9.77;7.97;;;30.80;99.90;;;;;;5010222;28;20037;-70
2021/08/15 09:48:36;;;;;;;13.13;8.35;;;30.70;99.90;;;;;;5011514;28;20388;-70
2021/08/15 09:51:17;;;;;;;9.10;8.07;;;30.80;99.90;;;;;;5011601;28;20060;-69
2021/08/15 09:53:45;;;;;;;10.10;9.10;;;30.80;99.90;;;;;;5011845;28;20316;-70
2021/08/15 09:56:11;;;;;;;9.43;7.68;;;30.80;99.90;;;;;;5010228;28;20018;-70
2021/08/15 09:58:38;;;;;;;9.52;7.72;;;30.80;99.90;;;;;;5010270;28;20184;-71
2021/08/15 10:01:06;;;;;;;11.25;9.00;;;30.70;99.90;;;;;;5011861;28;20555;-70
2021/08/15 10:03:34;;;;;;;17.23;9.05;;;30.70;99.90;;;;;;5011263;28;20120;-73
2021/08/15 10:06:01;;;;;;;14.05;8.23;;;30.70;99.90;;;;;;5010924;28;20032;-71
2021/08/15 10:08:28;;;;;;;10.57;8.77;;;30.70;99.90;;;;;;5011640;28;20057;-70
2021/08/15 10:10:54;;;;;;;11.18;8.65;;;30.70;99.90;;;;;;5010454;28;20072;-70
2021/08/15 10:13:20;;;;;;;12.13;9.82;;;30.70;99.90;;;;;;5010189;28;20026;-70
2021/08/15 10:16:12;;;;;;;8.85;8.15;;;30.70;99.90;;;;;;5011348;28;20041;-69
2021/08/15 10:18:41;;;;;;;10.93;10.00;;;30.80;99.90;;;;;;5011082;28;20121;-70
2021/08/15 10:21:20;;;;;;;16.23;9.15;;;30.80;99.90;;;;;;5011334;28;20033;-69
2021/08/15 10:23:47;;;;;;;10.70;7.15;;;30.90;99.90;;;;;;5011326;28;20026;-70
2021/08/15 10:26:36;;;;;;;9.27;7.85;;;31.00;99.90;;;;;;5010029;28;20026;-69
2021/08/15 10:29:03;;;;;;;8.27;7.57;;;31.20;99.90;;;;;;5009618;28;20029;-73
2021/08/15 10:32:07;;;;;;;15.70;8.05;;;31.30;99.90;;;;;;5011577;28;20121;-70
2021/08/15 10:34:54;;;;;;;9.73;7.93;;;31.30;99.90;;;;;;5011439;28;20018;-70
2021/08/15 10:37:25;;;;;;;9.82;7.88;;;31.30;99.90;;;;;;5011453;28;20584;-70
2021/08/15 10:40:05;;;;;;;8.48;7.55;;;31.30;99.90;;;;;;5012270;28;20381;-70
2021/08/15 10:42:42;;;;;;;8.43;7.57;;;31.40;99.90;;;;;;5010286;28;20029;-70
2021/08/15 10:45:10;;;;;;;8.75;7.57;;;31.60;99.90;;;;;;5009679;28;20048;-69
2021/08/15 10:47:37;;;;;;;8.45;7.65;;;31.60;99.90;;;;;;5010539;28;20408;-69
2021/08/15 10:50:06;;;;;;;9.02;8.18;;;31.70;99.90;;;;;;5010834;28;20026;-71
2021/08/15 10:52:34;;;;;;;9.68;8.43;;;31.80;99.90;;;;;;5009862;28;20032;-71
2021/08/15 10:55:04;;;;;;;11.95;8.40;;;31.90;99.90;;;;;;5010819;28;20045;-70
2021/08/15 10:57:42;;;;;;;13.68;7.85;;;31.80;99.90;;;;;;5010906;28;20022;-70
2021/08/15 11:00:30;;;;;;;13.70;9.35;;;31.80;99.90;;;;;;5013769;28;20160;-71
2021/08/15 11:03:21;;;;;;;9.77;8.52;;;31.80;99.90;;;;;;5013453;28;20025;-72
2021/08/15 11:05:47;;;;;;;11.40;8.30;;;31.80;99.90;;;;;;5014804;28;20396;-70
2021/08/15 11:08:31;;;;;;;13.43;10.48;;;31.80;99.90;;;;;;5013147;28;20026;-70
2021/08/15 11:11:06;;;;;;;11.38;9.23;;;31.80;99.90;;;;;;5013306;28;20029;-69
2021/08/15 11:13:33;;;;;;;14.85;10.27;;;31.90;99.90;;;;;;5014749;28;20029;-69
2021/08/15 11:16:26;;;;;;;12.05;9.05;;;31.90;99.90;;;;;;5014375;28;20053;-70
2021/08/15 11:19:07;;;;;;;11.52;9.10;;;31.70;99.90;;;;;;5013495;28;20518;-70
2021/08/15 11:22:05;;;;;;;10.65;9.57;;;31.60;99.90;;;;;;5013276;28;20041;-70
2021/08/15 11:24:39;;;;;;;11.07;9.02;;;31.50;99.90;;;;;;5014859;28;20052;-70
2021/08/15 11:27:06;;;;;;;11.95;10.55;;;31.40;99.90;;;;;;5013310;28;20029;-69
2021/08/15 11:29:33;;;;;;;10.25;8.95;;;31.50;99.90;;;;;;5014160;28;20025;-69
2021/08/15 11:31:59;;;;;;;10.45;9.48;;;31.40;99.90;;;;;;5013181;28;20476;-69
2021/08/15 11:34:26;;;;;;;10.60;9.57;;;31.40;99.90;;;;;;5014322;28;20045;-72
2021/08/15 11:37:03;;;;;;;10.00;9.10;;;31.30;99.90;;;;;;5014072;28;20538;-71
2021/08/15 11:39:38;;;;;;;13.48;9.73;;;31.30;99.90;;;;;;5013537;28;20022;-70
2021/08/15 11:42:06;;;;;;;10.43;9.45;;;31.40;99.90;;;;;;5012764;28;20472;-68
2021/08/15 11:44:58;;;;;;;10.48;9.45;;;31.30;99.90;;;;;;5012597;28;20044;-69
2021/08/15 11:47:36;;;;;;;11.07;9.23;;;31.10;99.90;;;;;;5013876;28;20034;-70
2021/08/15 11:50:15;;;;;;;10.35;9.45;;;31.00;99.90;;;;;;5012623;28;20049;-69
2021/08/15 11:52:41;;;;;;;10.27;9.32;;;31.00;99.90;;;;;;5014133;28;20534;-70
2021/08/15 11:55:18;;;;;;;10.23;9.32;;;31.10;99.90;;;;;;5013978;28;20057;-70
2021/08/15 11:57:50;;;;;;;14.32;10.05;;;31.10;99.90;;;;;;5012635;28;20395;-70
2021/08/15 12:00:16;;;;;;;;;;;31.20;99.90;;;;;;5013320;28;20037;-69
2021/08/15 12:03:08;;;;;;;12.90;9.13;;;31.20;99.90;;;;;;5014229;28;19912;-69
2021/08/15 12:05:47;;;;;;;12.30;10.75;;;31.20;99.90;;;;;;5014255;28;20534;-71
2021/08/15 12:08:15;;;;;;;13.02;9.45;;;31.20;99.90;;;;;;5012242;28;20029;-70
2021/08/15 12:10:47;;;;;;;10.32;9.48;;;31.20;99.90;;;;;;5012429;28;20030;-69
2021/08/15 12:13:32;;;;;;;14.73;9.07;;;31.20;99.90;;;;;;5013675;28;20392;-70
2021/08/15 12:15:57;;;;;;;16.40;10.13;;;31.10;99.90;;;;;;5014012;28;20025;-71
2021/08/15 12:18:37;;;;;;;12.23;10.55;;;31.00;99.90;;;;;;5013698;28;20022;-72
2021/08/15 12:21:23;;;;;;;12.60;11.43;;;31.10;99.90;;;;;;5011904;28;20037;-70
2021/08/15 12:24:06;;;;;;;18.48;11.60;;;31.30;99.90;;;;;;5012988;28;20511;-70
2021/08/15 12:26:36;;;;;;;16.85;11.27;;;31.30;99.90;;;;;;5013586;28;20030;-72
2021/08/15 12:29:06;;;;;;;12.23;10.80;;;31.40;99.90;;;;;;5013003;28;20022;-70
2021/08/15 12:31:34;;;;;;;12.50;10.23;;;31.50;99.90;;;;;;5012350;28;20025;-70
2021/08/15 12:34:09;;;;;;;12.00;10.73;;;31.40;99.90;;;;;;5012594;28;20026;-69
2021/08/15 12:36:40;;;;;;;11.77;10.63;;;31.30;99.90;;;;;;5015785;28;20085;-70
2021/08/15 12:39:06;;;;;;;14.52;10.52;;;31.30;99.90;;;;;;5012107;28;20484;-70
2021/08/15 12:41:48;;;;;;;12.10;11.07;;;31.50;99.90;;;;;;5012193;28;20033;-70
2021/08/15 12:44:18;;;;;;;13.65;10.80;;;31.70;99.90;;;;;;5012103;28;20045;-72
2021/08/15 12:46:44;;;;;;;14.27;11.70;;;31.90;99.90;;;;;;5013418;28;20048;-70
2021/08/15 12:49:22;;;;;;;15.82;11.13;;;31.90;99.90;;;;;;5011754;28;20026;-69
2021/08/15 12:51:49;;;;;;;12.80;11.13;;;31.80;99.90;;;;;;5012762;28;20026;-70